sensor_id;sensor_type;location;lat;lon;timestamp;P1;durP1;ratioP1;P2;durP2;ratioP2
48871;SDS011;36154;51.674;7.824;2023-11-21T00:00:18;0.70;;;0.68;;
48871;SDS011;36154;51.674;7.824;2023-11-21T00:02:44;0.55;;;0.55;;
48871;SDS011;36154;51.674;7.824;2023-11-21T00:05:11;1.00;;;0.82;;
48871;SDS011;36154;51.674;7.824;2023-11-21T00:07:39;0.82;;;0.70;;
48871;SDS011;36154;51.674;7.824;2023-11-21T00:10:05;0.60;;;0.60;;
48871;SDS011;36154;51.674;7.824;2023-11-21T00:12:33;0.55;;;0.55;;
48871;SDS011;36154;51.674;7.824;2023-11-21T00:14:58;0.75;;;0.75;;
48871;SDS011;36154;51.674;7.824;2023-11-21T00:17:24;0.57;;;0.57;;
48871;SDS011;36154;51.674;7.824;2023-11-21T00:19:49;1.15;;;0.93;;
48871;SDS011;36154;51.674;7.824;2023-11-21T00:22:17;0.98;;;0.88;;
48871;SDS011;36154;51.674;7.824;2023-11-21T00:24:42;0.68;;;0.68;;
48871;SDS011;36154;51.674;7.824;2023-11-21T00:27:07;0.87;;;0.53;;
48871;SDS011;36154;51.674;7.824;2023-11-21T00:29:33;1.02;;;0.73;;
48871;SDS011;36154;51.674;7.824;2023-11-21T00:31:58;0.70;;;0.70;;
48871;SDS011;36154;51.674;7.824;2023-11-21T00:34:23;0.90;;;0.90;;
48871;SDS011;36154;51.674;7.824;2023-11-21T00:36:48;0.80;;;0.80;;
48871;SDS011;36154;51.674;7.824;2023-11-21T00:39:14;0.55;;;0.55;;
48871;SDS011;36154;51.674;7.824;2023-11-21T00:41:39;0.52;;;0.52;;
48871;SDS011;36154;51.674;7.824;2023-11-21T00:44:04;0.40;;;0.40;;
48871;SDS011;36154;51.674;7.824;2023-11-21T00:46:31;0.60;;;0.50;;
48871;SDS011;36154;51.674;7.824;2023-11-21T00:48:57;0.50;;;0.50;;
48871;SDS011;36154;51.674;7.824;2023-11-21T00:51:22;0.60;;;0.60;;
48871;SDS011;36154;51.674;7.824;2023-11-21T00:53:47;0.80;;;0.65;;
48871;SDS011;36154;51.674;7.824;2023-11-21T00:56:13;0.52;;;0.52;;
48871;SDS011;36154;51.674;7.824;2023-11-21T00:58:39;0.60;;;0.60;;
48871;SDS011;36154;51.674;7.824;2023-11-21T01:01:07;0.93;;;0.93;;
48871;SDS011;36154;51.674;7.824;2023-11-21T01:03:33;0.50;;;0.50;;
48871;SDS011;36154;51.674;7.824;2023-11-21T01:05:58;0.40;;;0.40;;
48871;SDS011;36154;51.674;7.824;2023-11-21T01:08:24;0.50;;;0.50;;
48871;SDS011;36154;51.674;7.824;2023-11-21T01:10:49;0.50;;;0.50;;
48871;SDS011;36154;51.674;7.824;2023-11-21T01:13:14;0.68;;;0.60;;
48871;SDS011;36154;51.674;7.824;2023-11-21T01:15:40;0.65;;;0.65;;
48871;SDS011;36154;51.674;7.824;2023-11-21T01:18:07;0.50;;;0.50;;
48871;SDS011;36154;51.674;7.824;2023-11-21T01:20:33;0.60;;;0.50;;
48871;SDS011;36154;51.674;7.824;2023-11-21T01:22:58;0.95;;;0.70;;
48871;SDS011;36154;51.674;7.824;2023-11-21T01:25:24;0.57;;;0.57;;
48871;SDS011;36154;51.674;7.824;2023-11-21T01:27:49;0.50;;;0.40;;
48871;SDS011;36154;51.674;7.824;2023-11-21T01:30:15;0.95;;;0.77;;
48871;SDS011;36154;51.674;7.824;2023-11-21T01:32:41;0.50;;;0.50;;
48871;SDS011;36154;51.674;7.824;2023-11-21T01:35:06;0.70;;;0.70;;
48871;SDS011;36154;51.674;7.824;2023-11-21T01:37:32;0.63;;;0.60;;
48871;SDS011;36154;51.674;7.824;2023-11-21T01:39:58;0.50;;;0.50;;
48871;SDS011;36154;51.674;7.824;2023-11-21T01:42:26;1.13;;;0.70;;
48871;SDS011;36154;51.674;7.824;2023-11-21T01:44:52;0.50;;;0.50;;
48871;SDS011;36154;51.674;7.824;2023-11-21T01:47:17;1.73;;;0.60;;
48871;SDS011;36154;51.674;7.824;2023-11-21T01:49:43;0.60;;;0.60;;
48871;SDS011;36154;51.674;7.824;2023-11-21T01:52:10;0.75;;;0.60;;
48871;SDS011;36154;51.674;7.824;2023-11-21T01:54:36;0.52;;;0.52;;
48871;SDS011;36154;51.674;7.824;2023-11-21T01:57:02;0.60;;;0.60;;
48871;SDS011;36154;51.674;7.824;2023-11-21T01:59:34;0.50;;;0.50;;
48871;SDS011;36154;51.674;7.824;2023-11-21T02:02:04;0.90;;;0.60;;
48871;SDS011;36154;51.674;7.824;2023-11-21T02:04:32;0.63;;;0.57;;
48871;SDS011;36154;51.674;7.824;2023-11-21T02:06:59;0.70;;;0.70;;
48871;SDS011;36154;51.674;7.824;2023-11-21T02:09:25;0.50;;;0.50;;
48871;SDS011;36154;51.674;7.824;2023-11-21T02:11:52;0.40;;;0.40;;
48871;SDS011;36154;51.674;7.824;2023-11-21T02:14:18;0.63;;;0.63;;
48871;SDS011;36154;51.674;7.824;2023-11-21T02:16:46;0.52;;;0.52;;
48871;SDS011;36154;51.674;7.824;2023-11-21T02:19:14;0.50;;;0.50;;
48871;SDS011;36154;51.674;7.824;2023-11-21T02:24:14;0.68;;;0.68;;
48871;SDS011;36154;51.674;7.824;2023-11-21T02:26:40;0.60;;;0.60;;
48871;SDS011;36154;51.674;7.824;2023-11-21T02:29:06;0.40;;;0.40;;
48871;SDS011;36154;51.674;7.824;2023-11-21T02:31:31;0.60;;;0.60;;
48871;SDS011;36154;51.674;7.824;2023-11-21T02:33:57;0.47;;;0.40;;
48871;SDS011;36154;51.674;7.824;2023-11-21T02:36:23;0.63;;;0.63;;
48871;SDS011;36154;51.674;7.824;2023-11-21T02:38:48;1.05;;;0.88;;
48871;SDS011;36154;51.674;7.824;2023-11-21T02:41:13;0.65;;;0.60;;
48871;SDS011;36154;51.674;7.824;2023-11-21T02:43:38;0.47;;;0.47;;
48871;SDS011;36154;51.674;7.824;2023-11-21T02:46:04;0.70;;;0.70;;
48871;SDS011;36154;51.674;7.824;2023-11-21T02:48:29;0.60;;;0.60;;
48871;SDS011;36154;51.674;7.824;2023-11-21T02:50:55;0.70;;;0.70;;
48871;SDS011;36154;51.674;7.824;2023-11-21T02:53:21;0.50;;;0.50;;
48871;SDS011;36154;51.674;7.824;2023-11-21T02:55:46;0.70;;;0.70;;
48871;SDS011;36154;51.674;7.824;2023-11-21T02:58:11;0.50;;;0.50;;
48871;SDS011;36154;51.674;7.824;2023-11-21T03:00:36;0.60;;;0.57;;
48871;SDS011;36154;51.674;7.824;2023-11-21T03:03:02;0.40;;;0.40;;
48871;SDS011;36154;51.674;7.824;2023-11-21T03:05:27;0.70;;;0.70;;
48871;SDS011;36154;51.674;7.824;2023-11-21T03:07:53;0.80;;;0.52;;
48871;SDS011;36154;51.674;7.824;2023-11-21T03:10:19;0.60;;;0.60;;
48871;SDS011;36154;51.674;7.824;2023-11-21T03:12:44;0.45;;;0.45;;
48871;SDS011;36154;51.674;7.824;2023-11-21T03:15:09;0.63;;;0.45;;
48871;SDS011;36154;51.674;7.824;2023-11-21T03:17:35;0.60;;;0.60;;
48871;SDS011;36154;51.674;7.824;2023-11-21T03:20:01;0.60;;;0.60;;
48871;SDS011;36154;51.674;7.824;2023-11-21T03:22:26;0.60;;;0.60;;
48871;SDS011;36154;51.674;7.824;2023-11-21T03:24:51;0.60;;;0.60;;
48871;SDS011;36154;51.674;7.824;2023-11-21T03:27:17;0.60;;;0.60;;
48871;SDS011;36154;51.674;7.824;2023-11-21T03:29:42;0.55;;;0.55;;
48871;SDS011;36154;51.674;7.824;2023-11-21T03:32:08;0.40;;;0.40;;
48871;SDS011;36154;51.674;7.824;2023-11-21T03:34:33;0.77;;;0.77;;
48871;SDS011;36154;51.674;7.824;2023-11-21T03:36:59;0.45;;;0.45;;
48871;SDS011;36154;51.674;7.824;2023-11-21T03:39:24;0.50;;;0.50;;
48871;SDS011;36154;51.674;7.824;2023-11-21T03:41:50;0.50;;;0.50;;
48871;SDS011;36154;51.674;7.824;2023-11-21T03:44:16;0.50;;;0.50;;
48871;SDS011;36154;51.674;7.824;2023-11-21T03:46:42;0.57;;;0.57;;
48871;SDS011;36154;51.674;7.824;2023-11-21T03:49:08;0.50;;;0.50;;
48871;SDS011;36154;51.674;7.824;2023-11-21T03:51:33;0.50;;;0.50;;
48871;SDS011;36154;51.674;7.824;2023-11-21T03:53:59;0.50;;;0.50;;
48871;SDS011;36154;51.674;7.824;2023-11-21T03:56:24;0.50;;;0.50;;
48871;SDS011;36154;51.674;7.824;2023-11-21T03:58:49;0.60;;;0.60;;
48871;SDS011;36154;51.674;7.824;2023-11-21T04:01:24;0.65;;;0.65;;
48871;SDS011;36154;51.674;7.824;2023-11-21T04:03:49;0.50;;;0.50;;
48871;SDS011;36154;51.674;7.824;2023-11-21T04:06:16;0.50;;;0.50;;
48871;SDS011;36154;51.674;7.824;2023-11-21T04:08:42;0.47;;;0.47;;
48871;SDS011;36154;51.674;7.824;2023-11-21T04:11:09;0.50;;;0.50;;
48871;SDS011;36154;51.674;7.824;2023-11-21T04:13:36;0.50;;;0.50;;
48871;SDS011;36154;51.674;7.824;2023-11-21T04:16:02;0.70;;;0.70;;
48871;SDS011;36154;51.674;7.824;2023-11-21T04:18:28;0.50;;;0.50;;
48871;SDS011;36154;51.674;7.824;2023-11-21T04:20:53;0.63;;;0.63;;
48871;SDS011;36154;51.674;7.824;2023-11-21T04:23:18;0.60;;;0.60;;
48871;SDS011;36154;51.674;7.824;2023-11-21T04:25:43;1.30;;;0.63;;
48871;SDS011;36154;51.674;7.824;2023-11-21T04:28:09;0.40;;;0.40;;
48871;SDS011;36154;51.674;7.824;2023-11-21T04:30:34;0.50;;;0.50;;
48871;SDS011;36154;51.674;7.824;2023-11-21T04:33:00;0.40;;;0.40;;
48871;SDS011;36154;51.674;7.824;2023-11-21T04:35:25;0.40;;;0.40;;
48871;SDS011;36154;51.674;7.824;2023-11-21T04:37:50;0.60;;;0.60;;
48871;SDS011;36154;51.674;7.824;2023-11-21T04:40:16;0.57;;;0.57;;
48871;SDS011;36154;51.674;7.824;2023-11-21T04:42:41;0.40;;;0.40;;
48871;SDS011;36154;51.674;7.824;2023-11-21T04:45:07;0.50;;;0.50;;
48871;SDS011;36154;51.674;7.824;2023-11-21T04:47:36;0.40;;;0.40;;
48871;SDS011;36154;51.674;7.824;2023-11-21T04:50:02;0.50;;;0.40;;
48871;SDS011;36154;51.674;7.824;2023-11-21T04:52:29;0.40;;;0.40;;
48871;SDS011;36154;51.674;7.824;2023-11-21T04:54:54;0.55;;;0.55;;
48871;SDS011;36154;51.674;7.824;2023-11-21T04:57:22;0.50;;;0.50;;
48871;SDS011;36154;51.674;7.824;2023-11-21T04:59:48;0.50;;;0.50;;
48871;SDS011;36154;51.674;7.824;2023-11-21T05:02:14;0.60;;;0.50;;
48871;SDS011;36154;51.674;7.824;2023-11-21T05:04:39;0.47;;;0.47;;
48871;SDS011;36154;51.674;7.824;2023-11-21T05:07:04;0.40;;;0.40;;
48871;SDS011;36154;51.674;7.824;2023-11-21T05:09:29;0.73;;;0.50;;
48871;SDS011;36154;51.674;7.824;2023-11-21T05:11:57;0.47;;;0.47;;
48871;SDS011;36154;51.674;7.824;2023-11-21T05:14:22;0.55;;;0.55;;
48871;SDS011;36154;51.674;7.824;2023-11-21T05:16:47;0.60;;;0.40;;
48871;SDS011;36154;51.674;7.824;2023-11-21T05:19:13;0.40;;;0.40;;
48871;SDS011;36154;51.674;7.824;2023-11-21T05:21:38;0.80;;;0.50;;
48871;SDS011;36154;51.674;7.824;2023-11-21T05:24:03;0.63;;;0.63;;
48871;SDS011;36154;51.674;7.824;2023-11-21T05:26:30;0.80;;;0.80;;
48871;SDS011;36154;51.674;7.824;2023-11-21T05:28:55;0.75;;;0.75;;
48871;SDS011;36154;51.674;7.824;2023-11-21T05:31:20;4.18;;;1.38;;
48871;SDS011;36154;51.674;7.824;2023-11-21T05:33:46;7.50;;;1.63;;
48871;SDS011;36154;51.674;7.824;2023-11-21T05:36:12;4.43;;;1.90;;
48871;SDS011;36154;51.674;7.824;2023-11-21T05:38:37;8.65;;;2.72;;
48871;SDS011;36154;51.674;7.824;2023-11-21T05:41:02;7.15;;;2.28;;
48871;SDS011;36154;51.674;7.824;2023-11-21T05:43:29;10.43;;;2.45;;
48871;SDS011;36154;51.674;7.824;2023-11-21T05:45:55;9.18;;;2.92;;
48871;SDS011;36154;51.674;7.824;2023-11-21T05:48:21;14.32;;;3.08;;
48871;SDS011;36154;51.674;7.824;2023-11-21T05:50:46;21.60;;;4.35;;
48871;SDS011;36154;51.674;7.824;2023-11-21T05:53:13;19.23;;;3.60;;
48871;SDS011;36154;51.674;7.824;2023-11-21T05:55:40;11.20;;;3.47;;
48871;SDS011;36154;51.674;7.824;2023-11-21T05:58:06;14.90;;;3.50;;
48871;SDS011;36154;51.674;7.824;2023-11-21T06:00:32;8.88;;;3.10;;
48871;SDS011;36154;51.674;7.824;2023-11-21T06:02:58;11.13;;;2.95;;
48871;SDS011;36154;51.674;7.824;2023-11-21T06:05:24;10.18;;;3.08;;
48871;SDS011;36154;51.674;7.824;2023-11-21T06:07:50;6.65;;;2.47;;
48871;SDS011;36154;51.674;7.824;2023-11-21T06:10:19;12.88;;;2.60;;
48871;SDS011;36154;51.674;7.824;2023-11-21T06:12:45;9.38;;;2.97;;
48871;SDS011;36154;51.674;7.824;2023-11-21T06:15:10;7.35;;;2.80;;
48871;SDS011;36154;51.674;7.824;2023-11-21T06:17:40;7.78;;;2.88;;
48871;SDS011;36154;51.674;7.824;2023-11-21T06:20:07;9.70;;;2.97;;
48871;SDS011;36154;51.674;7.824;2023-11-21T06:22:39;9.50;;;2.35;;
48871;SDS011;36154;51.674;7.824;2023-11-21T06:25:06;11.88;;;2.85;;
48871;SDS011;36154;51.674;7.824;2023-11-21T06:27:33;7.30;;;2.83;;
48871;SDS011;36154;51.674;7.824;2023-11-21T06:29:59;7.82;;;2.55;;
48871;SDS011;36154;51.674;7.824;2023-11-21T06:32:24;7.47;;;2.28;;
48871;SDS011;36154;51.674;7.824;2023-11-21T06:34:50;8.23;;;2.60;;
48871;SDS011;36154;51.674;7.824;2023-11-21T06:37:15;7.80;;;2.92;;
48871;SDS011;36154;51.674;7.824;2023-11-21T06:39:41;6.15;;;2.30;;
48871;SDS011;36154;51.674;7.824;2023-11-21T06:42:07;7.82;;;2.60;;
48871;SDS011;36154;51.674;7.824;2023-11-21T06:44:32;3.78;;;2.22;;
48871;SDS011;36154;51.674;7.824;2023-11-21T06:46:58;5.53;;;2.65;;
48871;SDS011;36154;51.674;7.824;2023-11-21T06:49:24;5.07;;;2.10;;
48871;SDS011;36154;51.674;7.824;2023-11-21T06:51:49;6.10;;;2.30;;
48871;SDS011;36154;51.674;7.824;2023-11-21T06:54:15;9.25;;;2.75;;
48871;SDS011;36154;51.674;7.824;2023-11-21T06:56:40;3.73;;;1.87;;
48871;SDS011;36154;51.674;7.824;2023-11-21T06:59:06;5.43;;;2.28;;
48871;SDS011;36154;51.674;7.824;2023-11-21T07:01:31;5.93;;;2.60;;
48871;SDS011;36154;51.674;7.824;2023-11-21T07:04:03;6.50;;;2.30;;
48871;SDS011;36154;51.674;7.824;2023-11-21T07:06:30;3.90;;;2.30;;
48871;SDS011;36154;51.674;7.824;2023-11-21T07:08:55;5.15;;;2.22;;
48871;SDS011;36154;51.674;7.824;2023-11-21T07:11:20;2.90;;;2.10;;
48871;SDS011;36154;51.674;7.824;2023-11-21T07:13:46;3.03;;;2.00;;
48871;SDS011;36154;51.674;7.824;2023-11-21T07:16:11;4.55;;;2.17;;
48871;SDS011;36154;51.674;7.824;2023-11-21T07:18:36;2.17;;;1.85;;
48871;SDS011;36154;51.674;7.824;2023-11-21T07:21:02;1.83;;;1.73;;
48871;SDS011;36154;51.674;7.824;2023-11-21T07:23:28;2.20;;;1.92;;
48871;SDS011;36154;51.674;7.824;2023-11-21T07:25:53;2.47;;;2.00;;
48871;SDS011;36154;51.674;7.824;2023-11-21T07:28:19;2.30;;;1.70;;
48871;SDS011;36154;51.674;7.824;2023-11-21T07:30:44;4.20;;;1.85;;
48871;SDS011;36154;51.674;7.824;2023-11-21T07:33:10;4.50;;;1.90;;
48871;SDS011;36154;51.674;7.824;2023-11-21T07:35:35;3.95;;;1.88;;
48871;SDS011;36154;51.674;7.824;2023-11-21T07:38:00;2.80;;;1.70;;
48871;SDS011;36154;51.674;7.824;2023-11-21T07:40:26;2.05;;;1.90;;
48871;SDS011;36154;51.674;7.824;2023-11-21T07:42:52;3.15;;;2.00;;
48871;SDS011;36154;51.674;7.824;2023-11-21T07:45:17;1.75;;;1.60;;
48871;SDS011;36154;51.674;7.824;2023-11-21T07:47:43;3.13;;;1.70;;
48871;SDS011;36154;51.674;7.824;2023-11-21T07:50:08;1.70;;;1.27;;
48871;SDS011;36154;51.674;7.824;2023-11-21T07:52:34;3.40;;;1.40;;
48871;SDS011;36154;51.674;7.824;2023-11-21T07:54:59;2.28;;;1.83;;
48871;SDS011;36154;51.674;7.824;2023-11-21T07:57:24;2.10;;;1.88;;
48871;SDS011;36154;51.674;7.824;2023-11-21T07:59:49;2.58;;;1.48;;
48871;SDS011;36154;51.674;7.824;2023-11-21T08:02:15;3.65;;;1.50;;
48871;SDS011;36154;51.674;7.824;2023-11-21T08:04:42;3.03;;;1.40;;
48871;SDS011;36154;51.674;7.824;2023-11-21T08:07:07;2.13;;;1.90;;
48871;SDS011;36154;51.674;7.824;2023-11-21T08:09:34;2.38;;;1.27;;
48871;SDS011;36154;51.674;7.824;2023-11-21T08:11:59;3.30;;;1.63;;
48871;SDS011;36154;51.674;7.824;2023-11-21T08:14:25;1.88;;;1.50;;
48871;SDS011;36154;51.674;7.824;2023-11-21T08:16:51;1.80;;;1.70;;
48871;SDS011;36154;51.674;7.824;2023-11-21T08:19:16;1.90;;;1.60;;
48871;SDS011;36154;51.674;7.824;2023-11-21T08:21:43;1.60;;;1.50;;
48871;SDS011;36154;51.674;7.824;2023-11-21T08:24:08;1.70;;;1.60;;
48871;SDS011;36154;51.674;7.824;2023-11-21T08:26:35;3.63;;;1.70;;
48871;SDS011;36154;51.674;7.824;2023-11-21T08:29:01;1.52;;;1.30;;
48871;SDS011;36154;51.674;7.824;2023-11-21T08:31:27;2.70;;;1.45;;
48871;SDS011;36154;51.674;7.824;2023-11-21T08:33:53;2.38;;;1.63;;
48871;SDS011;36154;51.674;7.824;2023-11-21T08:36:22;1.45;;;1.33;;
48871;SDS011;36154;51.674;7.824;2023-11-21T08:38:50;2.00;;;1.55;;
48871;SDS011;36154;51.674;7.824;2023-11-21T08:41:17;2.92;;;1.63;;
48871;SDS011;36154;51.674;7.824;2023-11-21T08:43:46;2.30;;;1.52;;
48871;SDS011;36154;51.674;7.824;2023-11-21T08:46:13;1.52;;;1.30;;
48871;SDS011;36154;51.674;7.824;2023-11-21T08:48:38;1.58;;;1.48;;
48871;SDS011;36154;51.674;7.824;2023-11-21T08:51:03;2.08;;;1.30;;
48871;SDS011;36154;51.674;7.824;2023-11-21T08:53:29;1.38;;;1.27;;
48871;SDS011;36154;51.674;7.824;2023-11-21T08:55:56;2.17;;;1.50;;
48871;SDS011;36154;51.674;7.824;2023-11-21T08:58:21;1.55;;;1.45;;
48871;SDS011;36154;51.674;7.824;2023-11-21T09:00:47;1.75;;;1.50;;
48871;SDS011;36154;51.674;7.824;2023-11-21T09:03:12;1.38;;;1.30;;
48871;SDS011;36154;51.674;7.824;2023-11-21T09:05:38;1.65;;;1.40;;
48871;SDS011;36154;51.674;7.824;2023-11-21T09:08:04;2.30;;;1.70;;
48871;SDS011;36154;51.674;7.824;2023-11-21T09:10:29;4.00;;;1.40;;
48871;SDS011;36154;51.674;7.824;2023-11-21T09:12:55;2.22;;;1.50;;
48871;SDS011;36154;51.674;7.824;2023-11-21T09:15:20;3.00;;;1.40;;
48871;SDS011;36154;51.674;7.824;2023-11-21T09:17:45;1.15;;;1.15;;
48871;SDS011;36154;51.674;7.824;2023-11-21T09:20:11;1.50;;;1.40;;
48871;SDS011;36154;51.674;7.824;2023-11-21T09:22:36;1.38;;;1.30;;
48871;SDS011;36154;51.674;7.824;2023-11-21T09:25:02;1.58;;;1.48;;
48871;SDS011;36154;51.674;7.824;2023-11-21T09:27:30;1.88;;;1.35;;
48871;SDS011;36154;51.674;7.824;2023-11-21T09:29:55;1.27;;;1.17;;
48871;SDS011;36154;51.674;7.824;2023-11-21T09:32:23;1.55;;;1.33;;
48871;SDS011;36154;51.674;7.824;2023-11-21T09:34:48;1.75;;;1.35;;
48871;SDS011;36154;51.674;7.824;2023-11-21T09:37:17;1.30;;;1.20;;
48871;SDS011;36154;51.674;7.824;2023-11-21T09:39:44;2.55;;;1.60;;
48871;SDS011;36154;51.674;7.824;2023-11-21T09:42:14;3.63;;;1.58;;
48871;SDS011;36154;51.674;7.824;2023-11-21T09:47:16;1.45;;;1.35;;
48871;SDS011;36154;51.674;7.824;2023-11-21T09:49:47;1.35;;;1.25;;
48871;SDS011;36154;51.674;7.824;2023-11-21T09:52:26;2.22;;;1.40;;
48871;SDS011;36154;51.674;7.824;2023-11-21T09:54:53;1.20;;;1.20;;
48871;SDS011;36154;51.674;7.824;2023-11-21T09:57:20;2.10;;;1.40;;
48871;SDS011;36154;51.674;7.824;2023-11-21T09:59:52;1.50;;;1.40;;
48871;SDS011;36154;51.674;7.824;2023-11-21T10:02:24;1.42;;;1.10;;
48871;SDS011;36154;51.674;7.824;2023-11-21T10:04:51;1.30;;;1.20;;
48871;SDS011;36154;51.674;7.824;2023-11-21T10:07:18;1.75;;;1.65;;
48871;SDS011;36154;51.674;7.824;2023-11-21T10:09:45;2.25;;;1.45;;
48871;SDS011;36154;51.674;7.824;2023-11-21T10:12:11;1.15;;;1.05;;
48871;SDS011;36154;51.674;7.824;2023-11-21T10:14:38;1.30;;;1.20;;
48871;SDS011;36154;51.674;7.824;2023-11-21T10:17:06;2.17;;;1.33;;
48871;SDS011;36154;51.674;7.824;2023-11-21T10:19:33;1.13;;;1.10;;
48871;SDS011;36154;51.674;7.824;2023-11-21T10:22:01;1.30;;;1.20;;
48871;SDS011;36154;51.674;7.824;2023-11-21T10:24:27;2.15;;;1.20;;
48871;SDS011;36154;51.674;7.824;2023-11-21T10:26:52;1.73;;;1.40;;
48871;SDS011;36154;51.674;7.824;2023-11-21T10:29:18;1.58;;;1.35;;
48871;SDS011;36154;51.674;7.824;2023-11-21T10:31:48;1.33;;;1.30;;
48871;SDS011;36154;51.674;7.824;2023-11-21T10:34:15;1.40;;;1.20;;
48871;SDS011;36154;51.674;7.824;2023-11-21T10:36:42;1.38;;;1.27;;
48871;SDS011;36154;51.674;7.824;2023-11-21T10:39:07;1.25;;;1.20;;
48871;SDS011;36154;51.674;7.824;2023-11-21T10:41:34;1.15;;;1.10;;
48871;SDS011;36154;51.674;7.824;2023-11-21T10:44:00;1.25;;;1.17;;
48871;SDS011;36154;51.674;7.824;2023-11-21T10:46:26;0.90;;;0.90;;
48871;SDS011;36154;51.674;7.824;2023-11-21T10:48:52;1.02;;;1.02;;
48871;SDS011;36154;51.674;7.824;2023-11-21T10:51:20;1.08;;;1.08;;
48871;SDS011;36154;51.674;7.824;2023-11-21T10:53:45;1.17;;;1.02;;
48871;SDS011;36154;51.674;7.824;2023-11-21T10:56:11;1.48;;;1.30;;
48871;SDS011;36154;51.674;7.824;2023-11-21T10:58:43;1.58;;;1.08;;
48871;SDS011;36154;51.674;7.824;2023-11-21T11:01:08;1.45;;;1.08;;
48871;SDS011;36154;51.674;7.824;2023-11-21T11:03:36;1.58;;;1.20;;
48871;SDS011;36154;51.674;7.824;2023-11-21T11:06:03;0.95;;;0.95;;
48871;SDS011;36154;51.674;7.824;2023-11-21T11:08:32;1.02;;;1.02;;
48871;SDS011;36154;51.674;7.824;2023-11-21T11:10:59;0.90;;;0.90;;
48871;SDS011;36154;51.674;7.824;2023-11-21T11:13:24;1.25;;;1.17;;
48871;SDS011;36154;51.674;7.824;2023-11-21T11:15:50;1.10;;;1.10;;
48871;SDS011;36154;51.674;7.824;2023-11-21T11:18:16;0.90;;;0.90;;
48871;SDS011;36154;51.674;7.824;2023-11-21T11:20:42;1.10;;;1.10;;
48871;SDS011;36154;51.674;7.824;2023-11-21T11:23:26;1.42;;;1.33;;
48871;SDS011;36154;51.674;7.824;2023-11-21T11:26:08;1.15;;;1.15;;
48871;SDS011;36154;51.674;7.824;2023-11-21T11:28:53;1.48;;;1.38;;
48871;SDS011;36154;51.674;7.824;2023-11-21T11:34:35;1.77;;;1.67;;
48871;SDS011;36154;51.674;7.824;2023-11-21T11:37:06;1.50;;;1.40;;
48871;SDS011;36154;51.674;7.824;2023-11-21T11:39:35;1.30;;;1.20;;
48871;SDS011;36154;51.674;7.824;2023-11-21T11:42:14;1.25;;;1.17;;
48871;SDS011;36154;51.674;7.824;2023-11-21T11:47:27;2.95;;;1.63;;
48871;SDS011;36154;51.674;7.824;2023-11-21T11:55:05;3.03;;;1.20;;
48871;SDS011;36154;51.674;7.824;2023-11-21T11:57:35;1.77;;;1.67;;
48871;SDS011;36154;51.674;7.824;2023-11-21T12:00:19;1.92;;;1.50;;
48871;SDS011;36154;51.674;7.824;2023-11-21T12:02:55;0.98;;;0.98;;
48871;SDS011;36154;51.674;7.824;2023-11-21T12:05:27;1.35;;;1.20;;
48871;SDS011;36154;51.674;7.824;2023-11-21T12:07:53;1.42;;;1.33;;
48871;SDS011;36154;51.674;7.824;2023-11-21T12:10:30;3.08;;;1.50;;
48871;SDS011;36154;51.674;7.824;2023-11-21T12:15:26;1.25;;;1.15;;
48871;SDS011;36154;51.674;7.824;2023-11-21T12:17:55;1.30;;;1.10;;
48871;SDS011;36154;51.674;7.824;2023-11-21T12:20:23;1.10;;;1.10;;
48871;SDS011;36154;51.674;7.824;2023-11-21T12:22:50;1.40;;;1.30;;
48871;SDS011;36154;51.674;7.824;2023-11-21T12:25:16;0.93;;;0.93;;
48871;SDS011;36154;51.674;7.824;2023-11-21T12:27:44;1.40;;;1.30;;
48871;SDS011;36154;51.674;7.824;2023-11-21T12:30:11;1.30;;;1.20;;
48871;SDS011;36154;51.674;7.824;2023-11-21T12:32:40;1.33;;;1.23;;
48871;SDS011;36154;51.674;7.824;2023-11-21T12:35:06;1.48;;;1.40;;
48871;SDS011;36154;51.674;7.824;2023-11-21T12:37:33;1.00;;;0.90;;
48871;SDS011;36154;51.674;7.824;2023-11-21T12:39:58;1.10;;;1.00;;
48871;SDS011;36154;51.674;7.824;2023-11-21T12:42:24;1.30;;;1.20;;
48871;SDS011;36154;51.674;7.824;2023-11-21T12:45:06;0.95;;;0.95;;
48871;SDS011;36154;51.674;7.824;2023-11-21T12:47:41;1.27;;;1.10;;
48871;SDS011;36154;51.674;7.824;2023-11-21T12:50:07;1.08;;;1.00;;
48871;SDS011;36154;51.674;7.824;2023-11-21T12:52:39;1.10;;;1.10;;
48871;SDS011;36154;51.674;7.824;2023-11-21T12:55:14;0.88;;;0.88;;
48871;SDS011;36154;51.674;7.824;2023-11-21T12:57:41;1.10;;;1.00;;
48871;SDS011;36154;51.674;7.824;2023-11-21T13:00:08;1.48;;;1.38;;
48871;SDS011;36154;51.674;7.824;2023-11-21T13:02:38;1.23;;;1.13;;
48871;SDS011;36154;51.674;7.824;2023-11-21T13:05:07;1.30;;;1.20;;
48871;SDS011;36154;51.674;7.824;2023-11-21T13:07:44;1.10;;;1.00;;
48871;SDS011;36154;51.674;7.824;2023-11-21T13:10:13;1.20;;;1.10;;
48871;SDS011;36154;51.674;7.824;2023-11-21T13:12:42;1.02;;;0.93;;
48871;SDS011;36154;51.674;7.824;2023-11-21T13:15:13;1.08;;;0.90;;
48871;SDS011;36154;51.674;7.824;2023-11-21T13:17:39;1.10;;;1.10;;
48871;SDS011;36154;51.674;7.824;2023-11-21T13:20:05;0.93;;;0.93;;
48871;SDS011;36154;51.674;7.824;2023-11-21T13:22:33;0.95;;;0.95;;
48871;SDS011;36154;51.674;7.824;2023-11-21T13:25:00;1.00;;;1.00;;
48871;SDS011;36154;51.674;7.824;2023-11-21T13:27:32;1.00;;;1.00;;
48871;SDS011;36154;51.674;7.824;2023-11-21T13:29:58;0.90;;;0.90;;
48871;SDS011;36154;51.674;7.824;2023-11-21T13:32:24;1.15;;;0.95;;
48871;SDS011;36154;51.674;7.824;2023-11-21T13:34:49;1.00;;;1.00;;
48871;SDS011;36154;51.674;7.824;2023-11-21T13:37:18;0.90;;;0.90;;
48871;SDS011;36154;51.674;7.824;2023-11-21T13:39:43;0.90;;;0.90;;
48871;SDS011;36154;51.674;7.824;2023-11-21T13:42:10;0.90;;;0.90;;
48871;SDS011;36154;51.674;7.824;2023-11-21T13:44:36;0.90;;;0.90;;
48871;SDS011;36154;51.674;7.824;2023-11-21T13:47:03;0.93;;;0.85;;
48871;SDS011;36154;51.674;7.824;2023-11-21T13:49:30;0.70;;;0.70;;
48871;SDS011;36154;51.674;7.824;2023-11-21T13:52:00;1.27;;;1.20;;
48871;SDS011;36154;51.674;7.824;2023-11-21T13:54:27;0.95;;;0.95;;
48871;SDS011;36154;51.674;7.824;2023-11-21T13:56:53;0.70;;;0.70;;
48871;SDS011;36154;51.674;7.824;2023-11-21T13:59:19;0.90;;;0.90;;
48871;SDS011;36154;51.674;7.824;2023-11-21T14:01:50;0.98;;;0.95;;
48871;SDS011;36154;51.674;7.824;2023-11-21T14:04:36;0.98;;;0.95;;
48871;SDS011;36154;51.674;7.824;2023-11-21T14:07:15;0.85;;;0.85;;
48871;SDS011;36154;51.674;7.824;2023-11-21T14:10:00;0.90;;;0.90;;
48871;SDS011;36154;51.674;7.824;2023-11-21T14:12:26;0.80;;;0.80;;
48871;SDS011;36154;51.674;7.824;2023-11-21T14:14:51;0.70;;;0.70;;
48871;SDS011;36154;51.674;7.824;2023-11-21T14:17:16;0.73;;;0.73;;
48871;SDS011;36154;51.674;7.824;2023-11-21T14:19:41;1.05;;;0.80;;
48871;SDS011;36154;51.674;7.824;2023-11-21T14:22:11;0.80;;;0.80;;
48871;SDS011;36154;51.674;7.824;2023-11-21T14:24:37;1.00;;;1.00;;
48871;SDS011;36154;51.674;7.824;2023-11-21T14:27:02;0.80;;;0.80;;
48871;SDS011;36154;51.674;7.824;2023-11-21T14:29:28;1.63;;;0.90;;
48871;SDS011;36154;51.674;7.824;2023-11-21T14:31:54;0.70;;;0.70;;
48871;SDS011;36154;51.674;7.824;2023-11-21T14:34:23;0.80;;;0.80;;
48871;SDS011;36154;51.674;7.824;2023-11-21T14:36:49;0.93;;;0.77;;
48871;SDS011;36154;51.674;7.824;2023-11-21T14:39:15;4.78;;;0.80;;
48871;SDS011;36154;51.674;7.824;2023-11-21T14:41:48;1.73;;;1.02;;
48871;SDS011;36154;51.674;7.824;2023-11-21T14:44:14;0.55;;;0.55;;
48871;SDS011;36154;51.674;7.824;2023-11-21T14:46:40;2.58;;;0.90;;
48871;SDS011;36154;51.674;7.824;2023-11-21T14:49:10;3.55;;;1.10;;
48871;SDS011;36154;51.674;7.824;2023-11-21T14:51:46;5.97;;;1.10;;
48871;SDS011;36154;51.674;7.824;2023-11-21T14:54:40;1.13;;;0.93;;
48871;SDS011;36154;51.674;7.824;2023-11-21T14:57:06;2.15;;;1.20;;
48871;SDS011;36154;51.674;7.824;2023-11-21T14:59:44;2.92;;;0.98;;
48871;SDS011;36154;51.674;7.824;2023-11-21T15:02:17;2.60;;;1.20;;
48871;SDS011;36154;51.674;7.824;2023-11-21T15:04:47;3.00;;;0.90;;